Time;durP1;ratioP1;P1;durP2;ratioP2;P2;SDS_P1;SDS_P2;PMS_P1;PMS_P2;Temp;Humidity;BMP_temperature;BMP_pressure;BME280_temperature;BME280_humidity;BME280_pressure;Samples;Min_cycle;Max_cycle;Signal;HPM_P1;HPM_P2
2022/09/12 00:01:27;;;;;;;13.13;11.55;;;;;;;14.52;100.00;101637.66;5284604;28;20051;-71
2022/09/12 00:04:00;;;;;;;12.50;11.20;;;;;;;14.50;100.00;101629.03;5285374;28;20024;-69
2022/09/12 00:06:35;;;;;;;13.13;11.82;;;;;;;14.48;100.00;101630.13;5290280;28;20035;-69
2022/09/12 00:09:09;;;;;;;13.70;12.00;;;;;;;14.48;100.00;101630.13;5275226;28;20115;-69
2022/09/12 00:11:43;;;;;;;14.80;12.68;;;;;;;14.40;100.00;101622.06;5279425;28;20035;-69
2022/09/12 00:14:17;;;;;;;14.32;12.93;;;;;;;14.38;100.00;101622.19;5289924;28;20020;-71
2022/09/12 00:16:48;;;;;;;14.65;13.25;;;;;;;14.40;100.00;101619.44;5281502;28;20021;-69
2022/09/12 00:19:19;;;;;;;14.23;12.82;;;;;;;14.37;100.00;101617.88;5289166;28;20028;-69
2022/09/12 00:21:50;;;;;;;14.68;13.27;;;;;;;14.35;100.00;101615.38;5287468;28;20121;-69
2022/09/12 00:24:22;;;;;;;15.10;13.20;;;;;;;14.28;100.00;101619.53;5285412;28;20469;-71
2022/09/12 00:26:53;;;;;;;15.65;14.05;;;;;;;14.31;100.00;101619.25;5291178;28;20034;-69
2022/09/12 00:29:24;;;;;;;14.65;12.88;;;;;;;14.29;100.00;101620.38;5288417;28;20024;-70
2022/09/12 00:31:56;;;;;;;14.95;12.75;;;;;;;14.27;100.00;101614.38;5289602;28;20060;-68
2022/09/12 00:34:27;;;;;;;13.88;12.57;;;;;;;14.23;100.00;101613.81;5292909;28;20031;-69
2022/09/12 00:36:58;;;;;;;13.75;12.35;;;;;;;14.20;100.00;101615.88;5288351;28;20089;-69
2022/09/12 00:39:30;;;;;;;12.45;11.25;;;;;;;14.14;100.00;101601.47;5285591;28;20161;-68
2022/09/12 00:42:01;;;;;;;13.65;12.25;;;;;;;14.18;100.00;101608.13;5292404;28;20037;-69
2022/09/12 00:44:32;;;;;;;15.02;13.52;;;;;;;14.10;100.00;101603.53;5287074;28;20031;-69
2022/09/12 00:47:15;;;;;;;14.60;13.03;;;;;;;14.10;100.00;101603.53;5289477;28;20039;-69
2022/09/12 00:50:11;;;;;;;14.70;13.13;;;;;;;14.31;100.00;101608.69;5286806;28;20481;-69
2022/09/12 00:52:48;;;;;;;14.30;12.80;;;;;;;14.14;100.00;101603.28;5290593;28;20089;-69
2022/09/12 00:55:30;;;;;;;14.18;12.77;;;;;;;14.18;100.00;101600.22;5288554;28;20452;-69
2022/09/12 00:58:35;;;;;;;16.23;14.00;;;;;;;14.26;100.00;101595.09;5287276;28;20024;-68
2022/09/12 01:01:07;;;;;;;13.90;12.48;;;;;;;14.04;100.00;101595.31;5288034;28;20020;-69
2022/09/12 01:03:38;;;;;;;14.90;13.40;;;;;;;13.96;100.00;101589.91;5286499;28;20031;-68
2022/09/12 01:06:15;;;;;;;17.02;14.85;;;;;;;14.01;100.00;101590.31;5288052;28;20073;-69
2022/09/12 01:08:47;;;;;;;16.42;14.88;;;;;;;13.85;100.00;101586.38;5288912;28;20162;-69
2022/09/12 01:11:20;;;;;;;20.60;15.83;;;;;;;13.90;100.00;101578.09;5292445;28;20035;-69
2022/09/12 01:13:51;;;;;;;19.50;17.38;;;;;;;13.88;100.00;101580.84;5284465;28;20027;-68
2022/09/12 01:16:22;;;;;;;17.23;15.52;;;;;;;13.85;100.00;101570.59;5287052;28;20043;-68
2022/09/12 01:19:20;;;;;;;19.35;16.52;;;;;;;14.10;100.00;101581.63;5286455;28;20070;-69
2022/09/12 01:22:25;;;;;;;17.00;15.30;;;;;;;14.27;100.00;101578.31;5284358;28;20028;-68
2022/09/12 01:25:14;;;;;;;15.98;14.45;;;;;;;14.08;100.00;101573.00;5290165;28;20082;-68
2022/09/12 01:28:30;;;;;;;16.45;14.60;;;;;;;14.16;100.00;101567.88;5290040;28;20028;-68
2022/09/12 01:31:28;;;;;;;18.65;15.43;;;;;;;14.11;100.00;101567.47;5281369;28;20023;-68
2022/09/12 01:34:14;;;;;;;17.63;15.48;;;;;;;14.04;100.00;101574.25;5275738;28;20039;-68
2022/09/12 01:37:05;;;;;;;17.83;16.05;;;;;;;14.07;100.00;101563.44;5285308;28;20032;-69
2022/09/12 01:40:04;;;;;;;18.42;15.82;;;;;;;14.16;100.00;101559.97;5270093;28;20386;-69
2022/09/12 01:42:46;;;;;;;18.42;16.45;;;;;;;14.04;100.00;101568.97;5283777;28;20040;-69
2022/09/12 01:45:26;;;;;;;17.48;15.68;;;;;;;13.93;100.00;101569.09;5288422;28;20556;-68
2022/09/12 01:48:47;;;;;;;19.13;16.27;;;;;;;14.15;100.00;101570.69;5289186;28;20034;-69
2022/09/12 01:51:25;;;;;;;18.05;16.00;;;;;;;13.84;100.00;101563.66;5277158;28;20096;-68
2022/09/12 01:54:06;;;;;;;16.77;15.07;;;;;;;13.88;100.00;101566.84;5293289;28;20032;-69
2022/09/12 01:56:40;;;;;;;17.02;15.30;;;;;;;13.71;100.00;101555.13;5277627;28;20036;-68
2022/09/12 01:59:25;;;;;;;18.30;16.23;;;;;;;13.80;100.00;101549.09;5284409;28;20101;-68
2022/09/12 02:02:08;;;;;;;16.75;15.05;;;;;;;13.75;100.00;101538.13;5285433;28;20440;-68
2022/09/12 02:08:03;;;;;;;17.35;15.32;;;;;;;13.78;100.00;101534.38;5288357;28;20036;-69
2022/09/12 02:10:42;;;;;;;18.30;15.80;;;;;;;13.78;100.00;101535.22;5250598;28;20037;-69
2022/09/12 02:13:22;;;;;;;19.15;17.15;;;;;;;13.71;100.00;101531.44;5254026;28;20040;-69
2022/09/12 02:16:00;;;;;;;19.17;17.17;;;;;;;13.74;100.00;101530.34;5266968;28;20042;-69
2022/09/12 02:18:34;;;;;;;18.10;16.20;;;;;;;13.64;100.00;101527.69;5297005;28;20024;-70
2022/09/12 02:21:06;;;;;;;18.25;16.35;;;;;;;13.63;100.00;101533.91;5297469;28;20072;-71
2022/09/12 02:23:42;;;;;;;17.52;15.65;;;;;;;13.66;100.00;101533.66;5296671;28;20020;-69
2022/09/12 02:26:24;;;;;;;19.10;16.85;;;;;;;13.73;100.00;101542.69;5295946;28;20106;-69
2022/09/12 02:28:56;;;;;;;17.45;15.85;;;;;;;13.57;100.00;101540.56;5297879;28;20116;-70
2022/09/12 02:31:31;;;;;;;16.98;15.18;;;;;;;13.69;100.00;101540.47;5295329;28;20107;-69
2022/09/12 02:34:12;;;;;;;17.63;15.70;;;;;;;13.67;100.00;101542.38;5280880;28;20032;-71
2022/09/12 02:37:16;;;;;;;17.27;15.30;;;;;;;13.93;100.00;101540.09;5294647;28;20493;-72
2022/09/12 02:39:47;;;;;;;;;;;;;;;14.24;100.00;101536.41;5262930;28;20047;-70
2022/09/12 02:42:19;;;;;;;16.00;14.40;;;;;;;13.55;100.00;101531.13;5296170;28;20292;-70
2022/09/12 02:44:53;;;;;;;17.55;15.60;;;;;;;13.48;100.00;101532.59;5296804;28;20111;-70
2022/09/12 02:47:31;;;;;;;16.50;14.77;;;;;;;13.46;100.00;101521.41;5292002;28;20020;-70
2022/09/12 02:50:04;;;;;;;17.83;16.10;;;;;;;13.44;100.00;101521.50;5294704;28;20042;-70
2022/09/12 02:52:35;;;;;;;17.50;15.52;;;;;;;13.40;100.00;101512.22;5277705;28;20107;-69
2022/09/12 02:55:10;;;;;;;17.85;15.95;;;;;;;13.37;100.00;101523.00;5295664;28;20115;-70
2022/09/12 02:57:41;;;;;;;18.05;16.15;;;;;;;13.41;100.00;101515.66;5296672;28;20027;-70
2022/09/12 03:00:13;;;;;;;16.75;15.07;;;;;;;13.42;100.00;101517.38;5296256;28;20027;-70
2022/09/12 03:03:37;;;;;;;18.65;16.73;;;;;;;13.81;100.00;101513.03;5295180;28;20085;-70
2022/09/12 03:06:29;;;;;;;18.37;16.57;;;;;;;13.64;100.00;101506.63;5227384;28;20045;-69
2022/09/12 03:09:29;;;;;;;18.63;16.60;;;;;;;13.72;100.00;101505.97;5295757;28;20077;-69
2022/09/12 03:12:08;;;;;;;16.80;15.00;;;;;;;13.43;100.00;101503.22;5293794;28;20035;-69
2022/09/12 03:15:07;;;;;;;18.58;16.77;;;;;;;13.52;100.00;101500.63;5295296;28;20059;-70
2022/09/12 03:18:03;;;;;;;16.77;15.13;;;;;;;13.57;100.00;101503.69;5296465;28;20767;-70
2022/09/12 03:20:52;;;;;;;16.67;14.52;;;;;;;13.45;100.00;101504.78;5295764;28;20469;-72
2022/09/12 03:23:42;;;;;;;16.90;15.10;;;;;;;13.50;100.00;101501.72;5295703;28;20476;-70
2022/09/12 03:26:26;;;;;;;16.60;15.00;;;;;;;13.47;100.00;101499.38;5294694;28;20830;-70
2022/09/12 03:28:59;;;;;;;16.67;15.07;;;;;;;13.29;100.00;101502.59;5294550;28;20023;-71
2022/09/12 03:31:30;;;;;;;;;;;;;;;13.96;100.00;101495.06;5295323;28;20544;-70
2022/09/12 03:34:02;;;;;;;15.80;14.20;;;;;;;13.31;100.00;101500.69;5293829;28;20014;-70
2022/09/12 03:36:33;;;;;;;17.02;15.25;;;;;;;13.33;100.00;101500.53;5297092;28;20027;-69
2022/09/12 03:39:04;;;;;;;17.58;15.50;;;;;;;13.28;100.00;101498.31;5286332;28;20033;-69
2022/09/12 03:41:36;;;;;;;17.70;16.00;;;;;;;13.32;100.00;101493.63;5290287;28;20028;-70
2022/09/12 03:44:07;;;;;;;18.40;16.50;;;;;;;13.32;100.00;101491.81;5296495;28;20016;-70
2022/09/12 03:46:38;;;;;;;17.05;15.25;;;;;;;13.35;100.00;101496.00;5294623;28;20346;-69
2022/09/12 03:49:10;;;;;;;17.77;15.23;;;;;;;13.30;100.00;101499.03;5294424;28;20020;-72
2022/09/12 03:51:42;;;;;;;18.35;16.52;;;;;;;13.29;100.00;101494.69;5295738;28;20028;-70
2022/09/12 03:54:13;;;;;;;19.02;15.73;;;;;;;13.29;100.00;101488.63;5293156;28;20060;-69
2022/09/12 03:56:44;;;;;;;18.15;16.17;;;;;;;13.29;100.00;101492.06;5291121;28;20442;-70
2022/09/12 03:59:15;;;;;;;17.50;15.70;;;;;;;13.30;100.00;101491.13;5298396;28;20028;-70
2022/09/12 04:01:47;;;;;;;17.25;15.55;;;;;;;13.29;100.00;101489.44;5296064;28;20042;-70
2022/09/12 04:04:18;;;;;;;18.33;16.42;;;;;;;13.26;100.00;101484.47;5298169;28;20032;-70
2022/09/12 04:06:49;;;;;;;18.52;16.65;;;;;;;13.26;100.00;101480.97;5298783;28;20056;-70
2022/09/12 04:09:20;;;;;;;18.60;16.65;;;;;;;13.22;100.00;101482.19;5300271;28;20030;-71
2022/09/12 04:11:52;;;;;;;19.20;17.10;;;;;;;13.24;100.00;101470.59;5295440;28;20032;-70
2022/09/12 04:14:23;;;;;;;18.27;16.48;;;;;;;13.30;100.00;101474.50;5298651;28;20032;-70
2022/09/12 04:16:54;;;;;;;18.30;16.58;;;;;;;13.31;100.00;101482.25;5299662;28;20024;-70
2022/09/12 04:19:26;;;;;;;19.77;17.75;;;;;;;13.28;100.00;101472.00;5298720;28;20030;-71
2022/09/12 04:21:57;;;;;;;19.52;17.55;;;;;;;13.31;100.00;101474.38;5298527;28;20073;-71
2022/09/12 04:24:28;;;;;;;19.30;17.15;;;;;;;13.24;100.00;101460.06;5299437;28;20039;-71
2022/09/12 04:27:00;;;;;;;19.30;17.02;;;;;;;13.34;100.00;101465.38;5295584;28;20027;-70
2022/09/12 04:29:31;;;;;;;20.25;17.45;;;;;;;13.32;100.00;101460.22;5298561;28;20031;-72
2022/09/12 04:32:03;;;;;;;20.05;17.92;;;;;;;13.32;100.00;101468.13;5299469;28;20030;-71
2022/09/12 04:34:34;;;;;;;20.27;17.58;;;;;;;13.37;100.00;101465.09;5299754;28;20032;-71
2022/09/12 04:37:05;;;;;;;21.17;18.75;;;;;;;13.38;100.00;101457.09;5297567;28;20020;-72
2022/09/12 04:39:37;;;;;;;20.70;18.27;;;;;;;13.43;100.00;101454.03;5296457;28;20024;-71
2022/09/12 04:42:08;;;;;;;21.20;19.00;;;;;;;13.40;100.00;101454.31;5298419;28;20104;-71
2022/09/12 04:44:39;;;;;;;21.33;19.23;;;;;;;13.49;100.00;101456.16;5294953;28;20041;-70
2022/09/12 04:47:10;;;;;;;22.13;19.77;;;;;;;13.45;100.00;101456.53;5297246;28;20032;-71
2022/09/12 04:49:42;;;;;;;23.02;19.52;;;;;;;13.46;100.00;101447.69;5300576;28;20019;-71
2022/09/12 04:52:13;;;;;;;21.90;19.60;;;;;;;13.46;100.00;101456.41;5296903;28;20017;-71
2022/09/12 04:54:44;;;;;;;21.27;19.02;;;;;;;13.47;100.00;101457.25;5297711;28;20027;-71
2022/09/12 04:57:15;;;;;;;21.35;18.98;;;;;;;13.48;100.00;101457.09;5299543;28;20526;-72
2022/09/12 04:59:47;;;;;;;22.77;19.65;;;;;;;13.48;100.00;101453.63;5296736;28;20552;-71
2022/09/12 05:02:18;;;;;;;20.50;18.30;;;;;;;13.47;100.00;101458.06;5297869;28;20124;-71
2022/09/12 05:04:49;;;;;;;21.88;19.67;;;;;;;13.47;100.00;101455.44;5295279;28;20055;-72
2022/09/12 05:07:20;;;;;;;20.90;18.52;;;;;;;13.45;100.00;101454.75;5298635;28;20028;-72
2022/09/12 05:09:52;;;;;;;20.95;18.85;;;;;;;13.51;100.00;101461.28;5298810;28;20035;-72
2022/09/12 05:12:23;;;;;;;21.83;19.63;;;;;;;13.49;100.00;101458.78;5295969;28;20024;-70
2022/09/12 05:14:57;;;;;;;20.88;18.63;;;;;;;13.52;100.00;101458.50;5298850;28;20020;-71
2022/09/12 05:17:29;;;;;;;21.60;18.85;;;;;;;13.42;100.00;101456.81;5296095;28;20055;-73
2022/09/12 05:20:01;;;;;;;20.65;18.55;;;;;;;13.44;100.00;101460.13;5296078;28;20028;-71
2022/09/12 05:22:32;;;;;;;22.40;19.55;;;;;;;13.51;100.00;101463.91;5299693;28;20025;-73
2022/09/12 05:25:04;;;;;;;20.75;18.65;;;;;;;13.48;100.00;101470.25;5298489;28;20106;-73
2022/09/12 05:27:35;;;;;;;21.97;19.67;;;;;;;13.54;100.00;101463.63;5279824;28;20035;-74
2022/09/12 05:30:07;;;;;;;23.25;19.73;;;;;;;13.53;100.00;101468.09;5296093;28;20839;-71
2022/09/12 05:32:39;;;;;;;22.02;19.45;;;;;;;13.53;100.00;101468.09;5295342;28;20028;-72
2022/09/12 05:35:11;;;;;;;21.50;19.20;;;;;;;13.57;100.00;101460.75;5294926;28;20044;-71
2022/09/12 05:37:42;;;;;;;22.13;19.48;;;;;;;13.58;100.00;101462.41;5297350;28;20024;-72
2022/09/12 05:40:16;;;;;;;21.70;19.50;;;;;;;13.61;100.00;101462.16;5297417;28;20051;-71
2022/09/12 05:42:47;;;;;;;20.70;18.50;;;;;;;13.60;100.00;101466.59;5298102;28;20008;-71
2022/09/12 05:45:20;;;;;;;21.70;19.55;;;;;;;13.65;100.00;101460.06;5294528;28;20047;-71
2022/09/12 05:47:53;;;;;;;21.50;19.27;;;;;;;13.68;100.00;101463.28;5292314;28;20081;-72
2022/09/12 05:50:24;;;;;;;21.17;19.10;;;;;;;13.70;100.00;101466.59;5291194;28;20664;-70
2022/09/12 05:52:56;;;;;;;21.33;19.23;;;;;;;13.74;100.00;101469.78;5297140;28;20032;-71
2022/09/12 05:55:28;;;;;;;21.83;19.45;;;;;;;13.76;100.00;101475.75;5298931;28;20349;-72
2022/09/12 05:57:59;;;;;;;23.48;20.63;;;;;;;13.78;100.00;101471.19;5296709;28;20047;-73
2022/09/12 06:00:30;;;;;;;23.20;20.70;;;;;;;13.84;100.00;101474.09;5297274;28;20027;-71
2022/09/12 06:03:02;;;;;;;21.67;19.40;;;;;;;13.86;100.00;101477.44;5292735;28;20020;-71
2022/09/12 06:05:33;;;;;;;20.88;18.73;;;;;;;13.85;100.00;101480.19;5295199;28;20497;-71
2022/09/12 06:08:04;;;;;;;22.05;19.70;;;;;;;13.93;100.00;101490.88;5278485;28;20032;-71
2022/09/12 06:10:36;;;;;;;23.20;20.05;;;;;;;13.95;100.00;101481.06;5295308;28;20024;-72
2022/09/12 06:13:07;;;;;;;24.15;21.63;;;;;;;14.00;100.00;101488.56;5294977;28;20020;-72
2022/09/12 06:15:38;;;;;;;24.83;21.85;;;;;;;14.02;100.00;101487.44;5297940;28;20032;-71
2022/09/12 06:18:10;;;;;;;23.27;20.58;;;;;;;14.04;100.00;101489.94;5295865;28;20112;-72
2022/09/12 06:20:41;;;;;;;24.52;21.00;;;;;;;14.03;100.00;101483.00;5296733;28;20023;-71
2022/09/12 06:23:13;;;;;;;23.85;21.35;;;;;;;14.06;100.00;101483.56;5294724;28;20031;-71
2022/09/12 06:25:48;;;;;;;28.50;21.70;;;;;;;14.15;100.00;101476.63;5297184;28;20035;-71
2022/09/12 06:28:20;;;;;;;24.02;19.92;;;;;;;14.08;100.00;101478.97;5275778;28;20036;-71
2022/09/12 06:30:51;;;;;;;23.67;21.25;;;;;;;14.10;100.00;101474.41;5296917;28;20019;-71
2022/09/12 06:33:23;;;;;;;26.13;21.85;;;;;;;14.15;100.00;101476.63;5296420;28;20122;-70
2022/09/12 06:35:54;;;;;;;25.80;22.58;;;;;;;14.16;100.00;101466.94;5293039;28;20027;-72
2022/09/12 06:38:25;;;;;;;24.10;21.70;;;;;;;14.25;100.00;101474.84;5290131;28;20484;-70
2022/09/12 06:40:57;;;;;;;24.00;21.52;;;;;;;14.30;100.00;101474.44;5294706;28;20432;-71
2022/09/12 06:43:28;;;;;;;24.65;22.05;;;;;;;14.36;100.00;101473.88;5295739;28;20563;-72
2022/09/12 06:46:01;;;;;;;24.65;21.10;;;;;;;14.43;100.00;101474.13;5295547;28;20099;-71
2022/09/12 06:48:32;;;;;;;24.25;20.70;;;;;;;14.54;100.00;101471.38;5274969;28;20039;-71
2022/09/12 06:51:08;;;;;;;24.00;21.42;;;;;;;14.65;100.00;101468.59;5295834;28;20020;-71
2022/09/12 06:53:40;;;;;;;24.42;21.20;;;;;;;14.69;100.00;101467.34;5297208;28;20095;-71
2022/09/12 06:56:20;;;;;;;24.63;20.63;;;;;;;14.86;100.00;101470.22;5293444;28;20404;-71
2022/09/12 06:58:53;;;;;;;22.25;19.85;;;;;;;14.80;100.00;101466.34;5293825;28;20121;-71
2022/09/12 07:01:27;;;;;;;23.60;21.15;;;;;;;14.89;100.00;101465.50;5293992;28;20034;-71
2022/09/12 07:04:01;;;;;;;23.88;21.38;;;;;;;14.90;100.00;101466.34;5295886;28;20024;-71
2022/09/12 07:06:39;;;;;;;23.63;21.08;;;;;;;15.00;100.00;101472.41;5275684;28;20050;-70
2022/09/12 07:09:12;;;;;;;22.17;19.75;;;;;;;14.95;100.00;101459.63;5295637;28;20039;-72
2022/09/12 07:11:45;;;;;;;22.58;20.38;;;;;;;15.01;100.00;101464.34;5293608;28;20028;-72
2022/09/12 07:14:16;;;;;;;22.90;20.58;;;;;;;15.14;100.00;101471.09;5295676;28;20051;-73
2022/09/12 07:16:48;;;;;;;24.33;21.83;;;;;;;15.23;100.00;101471.09;5293821;28;20020;-71
2022/09/12 07:19:19;;;;;;;25.70;22.98;;;;;;;15.31;100.00;101471.19;5294816;28;20445;-71
2022/09/12 07:21:50;;;;;;;23.25;20.95;;;;;;;15.32;100.00;101467.56;5294580;28;20388;-71
2022/09/12 07:24:21;;;;;;;25.02;22.35;;;;;;;15.39;100.00;101464.34;5292608;28;20486;-71
2022/09/12 07:26:53;;;;;;;23.98;21.48;;;;;;;15.42;100.00;101450.84;5297244;28;20020;-71
2022/09/12 07:29:24;;;;;;;24.38;21.98;;;;;;;15.53;100.00;101455.91;5292974;28;20032;-72
2022/09/12 07:31:55;;;;;;;23.92;21.35;;;;;;;15.67;100.00;101457.28;5293864;28;20116;-71
2022/09/12 07:34:26;;;;;;;25.17;22.45;;;;;;;15.72;100.00;101447.94;5297334;28;20108;-71
2022/09/12 07:36:58;;;;;;;23.27;21.08;;;;;;;15.92;100.00;101447.78;5297148;28;20024;-71
2022/09/12 07:39:29;;;;;;;23.23;20.85;;;;;;;16.00;100.00;101455.81;5297798;28;20035;-71
2022/09/12 07:42:00;;;;;;;22.08;19.83;;;;;;;16.10;100.00;101463.63;5296441;28;20088;-71
2022/09/12 07:44:31;;;;;;;21.98;19.65;;;;;;;16.19;100.00;101466.22;5298381;28;20034;-71
2022/09/12 07:47:03;;;;;;;21.60;19.23;;;;;;;16.33;100.00;101464.88;5299211;28;20039;-71
2022/09/12 07:49:34;;;;;;;22.33;20.05;;;;;;;16.48;100.00;101465.16;5297706;28;20028;-71
2022/09/12 07:52:06;;;;;;;20.88;18.63;;;;;;;16.59;100.00;101462.22;5298000;28;20028;-71
2022/09/12 07:54:37;;;;;;;28.25;20.45;;;;;;;16.69;100.00;101456.84;5299658;28;20028;-70
2022/09/12 07:57:08;;;;;;;21.70;19.02;;;;;;;16.75;100.00;101475.63;5294608;28;20384;-72
2022/09/12 07:59:41;;;;;;;20.92;18.83;;;;;;;16.87;100.00;101475.38;5294008;28;20039;-71
2022/09/12 08:02:13;;;;;;;20.45;18.25;;;;;;;16.93;100.00;101467.66;5285368;28;20032;-71
2022/09/12 08:04:45;;;;;;;22.17;18.92;;;;;;;17.15;100.00;101460.13;5294669;28;20033;-71
2022/09/12 08:07:18;;;;;;;21.55;19.10;;;;;;;17.25;100.00;101459.03;5328399;22;20064;-71
2022/09/12 08:09:49;;;;;;;20.13;18.05;;;;;;;17.41;100.00;101452.13;5312159;28;20046;-71
2022/09/12 08:12:20;;;;;;;20.15;17.92;;;;;;;17.57;100.00;101461.97;5317573;28;20024;-72
2022/09/12 08:14:52;;;;;;;19.55;17.58;;;;;;;17.60;100.00;101467.75;5314239;28;20499;-72
2022/09/12 08:17:23;;;;;;;19.90;17.42;;;;;;;17.85;100.00;101463.41;5315164;28;20074;-70
2022/09/12 08:19:55;;;;;;;18.02;16.20;;;;;;;17.97;100.00;101463.91;5315245;28;20492;-70
2022/09/12 08:22:29;;;;;;;23.58;16.90;;;;;;;18.12;100.00;101467.59;5313709;28;20024;-70
2022/09/12 08:25:01;;;;;;;21.38;17.70;;;;;;;18.21;100.00;101465.75;5293181;28;20059;-71
2022/09/12 08:27:32;;;;;;;18.20;16.40;;;;;;;18.30;100.00;101474.56;5316670;28;20124;-70
2022/09/12 08:30:05;;;;;;;19.77;17.80;;;;;;;18.46;100.00;101479.88;5314145;28;20086;-70
2022/09/12 08:32:36;;;;;;;23.45;16.95;;;;;;;18.58;100.00;101481.19;5313097;28;20066;-72
2022/09/12 08:35:07;;;;;;;19.33;17.23;;;;;;;18.73;100.00;101485.84;5307137;28;20499;-73
2022/09/12 08:37:39;;;;;;;18.35;16.50;;;;;;;18.88;100.00;101477.03;5315189;28;20408;-70
2022/09/12 08:40:16;;;;;;;19.25;17.00;;;;;;;19.12;100.00;101484.09;5315756;28;20027;-70
2022/09/12 08:43:06;;;;;;;18.55;16.60;;;;;;;19.26;100.00;101481.75;5314878;28;20380;-70
2022/09/12 08:45:49;;;;;;;18.30;15.85;;;;;;;19.39;100.00;101482.00;5316466;28;20032;-70
2022/09/12 08:48:20;;;;;;;16.98;15.18;;;;;;;19.55;100.00;101486.44;5316272;28;20499;-71
2022/09/12 08:50:52;;;;;;;18.15;16.35;;;;;;;19.65;100.00;101479.94;5313635;28;20030;-70
2022/09/12 08:53:28;;;;;;;17.20;14.67;;;;;;;19.79;100.00;101482.84;5314964;28;20073;-72
2022/09/12 08:56:00;;;;;;;17.55;15.73;;;;;;;19.88;100.00;101477.31;5315393;28;20433;-73
2022/09/12 08:58:39;;;;;;;17.08;14.10;;;;;;;20.17;100.00;101473.94;5309707;28;20028;-70
2022/09/12 09:01:23;;;;;;;17.90;13.95;;;;;;;20.29;100.00;101473.53;5312027;28;20481;-70
2022/09/12 09:04:23;;;;;;;13.00;11.73;;;;;;;20.63;100.00;101471.25;5314336;28;20077;-70
2022/09/12 09:07:21;;;;;;;13.15;11.75;;;;;;;20.63;100.00;101467.78;5313544;28;20044;-72
2022/09/12 09:09:59;;;;;;;12.65;11.45;;;;;;;20.63;100.00;101463.28;5311416;28;20027;-72
2022/09/12 09:12:33;;;;;;;12.55;10.93;;;;;;;20.87;100.00;101459.56;5313824;28;20023;-70
2022/09/12 09:15:34;;;;;;;10.55;9.55;;;;;;;21.18;100.00;101452.41;5316890;28;20079;-70
2022/09/12 09:18:22;;;;;;;12.60;9.52;;;;;;;21.13;100.00;101459.06;5313487;28;20093;-70
2022/09/12 09:21:20;;;;;;;8.73;7.80;;;;;;;21.24;100.00;101457.78;5314643;28;20111;-70
2022/09/12 09:24:00;;;;;;;9.13;8.23;;;;;;;21.51;100.00;101450.16;5312369;28;20019;-70
2022/09/12 09:26:34;;;;;;;9.20;8.23;;;;;;;21.55;100.00;101457.56;5313046;28;20039;-70
2022/09/12 09:29:21;;;;;;;10.23;8.43;;;;;;;21.86;100.00;101460.00;5312957;28;20463;-71
2022/09/12 09:31:56;;;;;;;10.68;9.43;;;;;;;21.86;100.00;101456.50;5313772;28;20411;-72
2022/09/12 09:34:30;;;;;;;10.05;9.05;;;;;;;21.90;100.00;101452.44;5288831;28;20024;-71
2022/09/12 09:37:14;;;;;;;9.27;8.38;;;;;;;22.14;100.00;101450.44;5310575;28;20032;-71
2022/09/12 09:39:45;;;;;;;10.05;8.93;;;;;;;22.08;100.00;101449.31;5310415;28;20131;-71
2022/09/12 09:42:25;;;;;;;9.23;7.57;;;;;;;22.34;100.00;101438.91;5312424;28;20103;-71
2022/09/12 09:45:01;;;;;;;10.57;7.65;;;;;;;22.34;100.00;101438.06;5315078;28;20037;-72
2022/09/12 09:47:33;;;;;;;9.27;8.48;;;;;;;22.29;100.00;101429.81;5311962;28;20023;-71
2022/09/12 09:50:05;;;;;;;9.97;8.83;;;;;;;22.41;100.00;101430.13;5313905;28;20054;-71
2022/09/12 09:52:38;;;;;;;15.05;8.32;;;;;;;22.64;100.00;101429.88;5315099;28;20430;-71
2022/09/12 09:55:22;;;;;;;11.43;6.95;;;;;;;22.86;100.00;101425.28;5316116;28;20110;-72
2022/09/12 09:57:53;;;;;;;7.68;6.85;;;;;;;22.96;100.00;101425.78;5311779;28;20078;-69
2022/09/12 10:00:33;;;;;;;7.33;6.63;;;;;;;23.22;100.00;101417.06;5314840;28;20052;-71
2022/09/12 10:03:13;;;;;;;7.57;6.68;;;;;;;23.15;100.00;101419.72;5313621;28;20014;-70
2022/09/12 10:05:51;;;;;;;7.80;6.43;;;;;;;23.23;100.00;101410.69;5312021;28;20039;-70
2022/09/12 10:08:32;;;;;;;7.15;6.47;;;;;;;23.24;100.00;101417.69;5314955;28;20114;-69
2022/09/12 10:11:15;;;;;;;7.43;6.65;;;;;;;23.26;100.00;101412.94;5315910;28;20035;-71
2022/09/12 10:13:50;;;;;;;8.57;7.80;;;;;;;23.36;100.00;101407.25;5313972;28;20043;-70
2022/09/12 10:16:29;;;;;;;9.07;7.47;;;;;;;23.29;100.00;101401.88;5317143;28;20024;-70
2022/09/12 10:19:02;;;;;;;8.50;6.22;;;;;;;23.55;100.00;101407.28;5314374;28;20020;-69
2022/09/12 10:21:54;;;;;;;7.28;6.57;;;;;;;23.78;100.00;101393.56;5313982;28;20031;-70
2022/09/12 10:24:38;;;;;;;7.88;6.50;;;;;;;23.72;100.00;101396.25;5313445;28;20045;-69
2022/09/12 10:27:12;;;;;;;8.38;6.35;;;;;;;23.79;100.00;101386.41;5313439;28;20495;-70
2022/09/12 10:29:51;;;;;;;7.53;6.13;;;;;;;23.77;100.00;101383.91;5310269;28;20028;-70
2022/09/12 10:32:29;;;;;;;7.65;5.28;;;;;;;24.03;100.00;101388.47;5313854;28;20028;-70
2022/09/12 10:35:21;;;;;;;6.93;5.82;;;;;;;23.99;100.00;101389.91;5315162;28;20595;-70
2022/09/12 10:37:56;;;;;;;8.25;5.57;;;;;;;24.09;100.00;101370.72;5312882;28;20492;-70
2022/09/12 10:40:36;;;;;;;8.18;5.65;;;;;;;24.04;100.00;101376.72;5314039;28;20642;-70
2022/09/12 10:43:23;;;;;;;5.75;4.70;;;;;;;24.48;100.00;101369.91;5314817;28;20488;-70
2022/09/12 10:46:18;;;;;;;5.68;4.65;;;;;;;24.61;100.00;101369.03;5310496;28;20032;-70
2022/09/12 10:48:51;;;;;;;4.10;3.70;;;;;;;24.35;100.00;101356.50;5313139;28;20023;-69
2022/09/12 10:51:23;;;;;;;4.53;4.05;;;;;;;24.40;100.00;101354.06;5311845;28;20122;-70
2022/09/12 10:53:57;;;;;;;4.40;3.63;;;;;;;24.60;100.00;101356.69;5315477;28;20106;-70
2022/09/12 10:56:37;;;;;;;12.13;5.10;;;;;;;24.63;100.00;101342.88;5315045;28;20027;-71
2022/09/12 10:59:37;;;;;;;6.38;3.90;;;;;;;24.77;100.00;101346.31;5316017;28;20027;-70
2022/09/12 11:02:24;;;;;;;3.90;3.47;;;;;;;24.74;100.00;101344.91;5312066;28;20034;-70
2022/09/12 11:05:06;;;;;;;6.05;3.85;;;;;;;24.97;100.00;101344.41;5310622;28;20610;-70
2022/09/12 11:08:27;;;;;;;4.13;2.63;;;;;;;25.27;100.00;101337.66;5314483;28;20484;-70
2022/09/12 11:11:17;;;;;;;7.60;3.28;;;;;;;25.22;100.00;101331.09;5298079;28;20046;-71
2022/09/12 11:14:11;;;;;;;5.03;3.45;;;;;;;25.39;100.00;101336.78;5313580;28;20027;-71
2022/09/12 11:16:52;;;;;;;4.03;2.80;;;;;;;25.34;100.00;101341.94;5314915;28;20076;-70
2022/09/12 11:19:41;;;;;;;4.67;2.77;;;;;;;25.52;100.00;101340.41;5311027;28;20662;-70
2022/09/12 11:22:43;;;;;;;3.75;2.50;;;;;;;25.62;100.00;101324.66;5312314;28;20026;-71
2022/09/12 11:25:45;;;;;;;5.03;3.00;;;;;;;25.68;100.00;101327.28;5314852;28;20172;-71
2022/09/12 11:28:36;;;;;;;4.00;3.05;;;;;;;25.53;100.00;101325.94;5313531;28;20057;-71
2022/09/12 11:31:45;;;;;;;4.10;2.80;;;;;;;25.82;100.00;101327.19;5311911;28;20385;-71
2022/09/12 11:34:58;;;;;;;3.75;2.75;;;;;;;25.90;100.00;101319.69;5313183;28;20039;-70
2022/09/12 11:37:58;;;;;;;3.88;2.60;;;;;;;25.79;100.00;101320.41;5204242;28;20037;-71
2022/09/12 11:40:35;;;;;;;3.65;2.63;;;;;;;25.70;100.00;101317.16;5312405;28;20488;-70
2022/09/12 11:43:48;;;;;;;3.25;2.50;;;;;;;26.05;100.00;101324.72;5312221;28;20027;-70
2022/09/12 11:46:30;;;;;;;10.55;2.83;;;;;;;25.95;100.00;101319.06;5314190;28;20559;-72
2022/09/12 11:49:14;;;;;;;3.20;2.15;;;;;;;26.04;100.00;101319.59;5313934;28;20106;-71
2022/09/12 11:52:00;;;;;;;2.65;1.70;;;;;;;26.09;92.60;101322.41;5305034;28;20042;-70
2022/09/12 11:54:41;;;;;;;3.70;1.70;;;;;;;25.89;82.58;101322.59;5311361;28;20388;-70